createdAt,value
2023-02-21T00:02:07.059Z,3.15
2023-02-21T00:04:52.452Z,5.53
2023-02-21T00:07:40.381Z,4.68
2023-02-21T00:10:27.135Z,4.55
2023-02-21T00:13:12.563Z,2.75
2023-02-21T00:15:57.880Z,3.53
2023-02-21T00:18:43.788Z,5.22
2023-02-21T00:21:29.230Z,7.68
2023-02-21T00:24:14.717Z,5.15
2023-02-21T00:27:00.257Z,2.42
2023-02-21T00:29:45.726Z,4.88
2023-02-21T00:32:31.117Z,6.25
2023-02-21T00:35:19.481Z,7.32
2023-02-21T00:38:09.225Z,5.90
2023-02-21T00:40:54.689Z,5.05
2023-02-21T00:43:47.432Z,7.32
2023-02-21T00:46:33.188Z,10.23
2023-02-21T00:49:18.571Z,5.75
2023-02-21T00:52:03.996Z,6.85
2023-02-21T00:54:50.756Z,7.13
2023-02-21T00:57:36.656Z,5.65
2023-02-21T01:00:24.233Z,9.25
2023-02-21T01:03:09.656Z,8.63
2023-02-21T01:05:55.055Z,7.75
2023-02-21T01:08:40.925Z,10.27
2023-02-21T01:11:36.773Z,7.90
2023-02-21T01:14:23.022Z,9.73
2023-02-21T01:17:13.405Z,15.93
2023-02-21T01:20:00.718Z,10.27
2023-02-21T01:22:47.134Z,7.47
2023-02-21T01:25:33.638Z,7.97
2023-02-21T01:28:21.434Z,9.70
2023-02-21T01:31:07.030Z,8.98
2023-02-21T01:34:00.104Z,8.77
2023-02-21T01:36:46.179Z,10.57
2023-02-21T01:39:31.982Z,10.20
2023-02-21T01:42:17.514Z,10.73
2023-02-21T01:45:04.910Z,12.93
2023-02-21T01:47:50.716Z,9.88
2023-02-21T01:50:42.449Z,13.82
2023-02-21T01:53:37.570Z,12.48
2023-02-21T01:56:23.964Z,10.43
2023-02-21T01:59:12.347Z,12.63
2023-02-21T02:02:23.696Z,14.05
2023-02-21T02:05:10.399Z,10.65
2023-02-21T02:07:57.491Z,11.38
2023-02-21T02:10:43.095Z,11.82
2023-02-21T02:13:40.770Z,12.93
2023-02-21T02:16:19.586Z,9.73
2023-02-21T02:19:13.945Z,16.35
2023-02-21T02:22:08.405Z,14.23
2023-02-21T02:24:50.021Z,10.57
2023-02-21T02:27:47.934Z,10.37
2023-02-21T02:30:15.066Z,12.27
2023-02-21T02:32:54.002Z,16.15
2023-02-21T02:35:38.651Z,11.90
2023-02-21T02:38:24.327Z,18.00
2023-02-21T02:41:03.880Z,12.70
2023-02-21T02:43:33.213Z,14.18
2023-02-21T02:46:33.344Z,11.65
2023-02-21T02:49:15.107Z,15.10
2023-02-21T02:51:42.062Z,15.55
2023-02-21T02:54:09.020Z,16.20
2023-02-21T02:56:37.125Z,11.25
2023-02-21T02:59:18.074Z,17.25
2023-02-21T03:02:09.626Z,16.55
2023-02-21T03:04:55.287Z,16.55
2023-02-21T03:07:31.437Z,18.75
2023-02-21T03:10:22.056Z,12.27
2023-02-21T03:12:57.880Z,12.93
2023-02-21T03:15:32.479Z,10.25
2023-02-21T03:18:17.306Z,16.30
2023-02-21T03:20:44.788Z,15.10
2023-02-21T03:23:14.128Z,11.90
2023-02-21T03:25:41.375Z,16.80
2023-02-21T03:28:08.733Z,14.75
2023-02-21T03:30:36.185Z,14.32
2023-02-21T03:33:03.297Z,15.23
2023-02-21T03:35:30.688Z,22.17
2023-02-21T03:38:00.135Z,17.73
2023-02-21T03:40:32.105Z,14.30
2023-02-21T03:43:01.409Z,13.85
2023-02-21T03:45:28.509Z,16.63
2023-02-21T03:47:55.381Z,12.23
2023-02-21T03:50:22.295Z,13.15
2023-02-21T03:52:49.251Z,14.88
2023-02-21T03:55:16.808Z,16.60
2023-02-21T03:57:43.778Z,14.77
2023-02-21T04:00:11.904Z,14.02
2023-02-21T04:02:38.907Z,20.25
2023-02-21T04:05:06.236Z,14.13
2023-02-21T04:07:33.146Z,17.25
2023-02-21T04:10:00.104Z,12.27
2023-02-21T04:12:27.014Z,13.13
2023-02-21T04:14:56.533Z,13.05
2023-02-21T04:17:23.546Z,12.73
2023-02-21T04:19:52.989Z,15.18
2023-02-21T04:22:19.942Z,10.55
2023-02-21T04:24:48.232Z,15.45
2023-02-21T04:27:15.798Z,17.50
2023-02-21T04:29:42.879Z,15.45
2023-02-21T04:32:11.216Z,15.07
2023-02-21T04:34:38.253Z,10.95
2023-02-21T04:37:05.256Z,14.75
2023-02-21T04:39:32.355Z,14.70
2023-02-21T04:41:59.293Z,9.25
2023-02-21T04:44:26.147Z,11.93
2023-02-21T04:46:53.258Z,14.95
2023-02-21T04:49:25.192Z,12.68
2023-02-21T04:51:52.295Z,16.02
2023-02-21T04:54:19.266Z,15.15
2023-02-21T04:56:46.277Z,17.08
2023-02-21T04:59:13.287Z,16.67
2023-02-21T05:01:40.446Z,16.92
2023-02-21T05:04:07.483Z,15.10
2023-02-21T05:06:34.491Z,15.48
2023-02-21T05:09:01.568Z,17.73
2023-02-21T05:11:28.603Z,26.55
2023-02-21T05:13:55.569Z,12.45
2023-02-21T05:16:22.497Z,13.88
2023-02-21T05:18:49.924Z,11.63
2023-02-21T05:21:19.436Z,15.85
2023-02-21T05:23:56.093Z,11.68
2023-02-21T05:26:26.748Z,15.45
2023-02-21T05:28:54.581Z,16.98
2023-02-21T05:31:21.806Z,13.32
2023-02-21T05:33:48.768Z,14.40
2023-02-21T05:36:15.853Z,15.30
2023-02-21T05:38:53.917Z,13.77
2023-02-21T05:41:21.061Z,12.25
2023-02-21T05:43:49.312Z,14.00
2023-02-21T05:46:21.679Z,20.98
2023-02-21T05:48:48.725Z,11.98
2023-02-21T05:51:16.593Z,14.13
2023-02-21T05:53:43.819Z,20.35
2023-02-21T05:56:11.109Z,15.32
2023-02-21T05:58:38.238Z,8.90
2023-02-21T06:01:06.915Z,17.23
2023-02-21T06:03:36.469Z,18.88
2023-02-21T06:06:03.604Z,13.73
2023-02-21T06:08:30.604Z,15.70
2023-02-21T06:10:57.787Z,16.00
2023-02-21T06:13:24.684Z,24.38
2023-02-21T06:15:53.883Z,20.63
2023-02-21T06:18:20.843Z,17.35
2023-02-21T06:20:47.806Z,11.40
2023-02-21T06:23:14.676Z,15.02
2023-02-21T06:25:41.670Z,11.80
2023-02-21T06:28:09.868Z,11.93
2023-02-21T06:30:36.925Z,19.80
2023-02-21T06:33:04.027Z,17.13
2023-02-21T06:35:30.946Z,12.48
2023-02-21T06:37:57.836Z,16.63
2023-02-21T06:40:24.759Z,22.65
2023-02-21T06:42:53.882Z,17.98
2023-02-21T06:45:20.802Z,17.45
2023-02-21T06:47:47.671Z,16.17
2023-02-21T06:50:14.600Z,17.17
2023-02-21T06:52:41.669Z,17.45
2023-02-21T06:55:11.192Z,15.48
2023-02-21T06:57:38.110Z,13.90
2023-02-21T07:00:06.162Z,13.45
2023-02-21T07:02:33.096Z,12.52
2023-02-21T07:05:00.029Z,16.92
2023-02-21T07:07:26.955Z,16.63
2023-02-21T07:09:53.862Z,14.43
2023-02-21T07:12:20.750Z,15.43
2023-02-21T07:14:47.606Z,17.50
2023-02-21T07:17:14.627Z,17.48
2023-02-21T07:19:42.340Z,19.63
2023-02-21T07:22:09.459Z,18.08
2023-02-21T07:24:36.744Z,17.90
2023-02-21T07:27:04.406Z,14.93
2023-02-21T07:29:31.424Z,19.98
2023-02-21T07:31:58.422Z,20.80
2023-02-21T07:34:27.834Z,15.57
2023-02-21T07:36:54.695Z,25.02
2023-02-21T07:39:21.682Z,21.80
2023-02-21T07:41:48.566Z,14.85
2023-02-21T07:44:17.587Z,20.48
2023-02-21T07:46:46.633Z,18.88
2023-02-21T07:49:13.633Z,19.65
2023-02-21T07:51:40.522Z,16.92
2023-02-21T07:54:07.402Z,17.85
2023-02-21T07:56:39.145Z,19.27
2023-02-21T07:59:06.000Z,13.68
2023-02-21T08:01:33.023Z,17.95
2023-02-21T08:03:59.898Z,18.23
2023-02-21T08:06:26.843Z,17.85
2023-02-21T08:08:53.981Z,17.98
2023-02-21T08:11:20.897Z,20.15
2023-02-21T08:13:48.137Z,16.02
2023-02-21T08:16:15.248Z,16.58
2023-02-21T08:18:43.259Z,14.02
2023-02-21T08:21:11.355Z,12.95
2023-02-21T08:23:38.250Z,19.52
2023-02-21T08:26:05.919Z,16.47
2023-02-21T08:28:32.825Z,16.70
2023-02-21T08:31:02.265Z,15.27
2023-02-21T08:33:31.494Z,20.63
2023-02-21T08:35:58.681Z,18.83
2023-02-21T08:38:25.582Z,18.83
2023-02-21T08:40:53.123Z,14.88
2023-02-21T08:43:20.005Z,20.52
2023-02-21T08:45:47.061Z,21.63
2023-02-21T08:48:13.947Z,21.25
2023-02-21T08:50:40.923Z,16.02
2023-02-21T08:53:07.977Z,19.05
2023-02-21T08:55:34.943Z,19.60
2023-02-21T08:58:01.844Z,14.77
2023-02-21T09:00:28.883Z,18.58
2023-02-21T09:02:57.682Z,14.55
2023-02-21T09:05:29.724Z,27.35
2023-02-21T09:07:59.757Z,17.85
2023-02-21T09:10:31.879Z,33.53
2023-02-21T09:12:58.814Z,19.15
2023-02-21T09:15:25.809Z,23.85
2023-02-21T09:17:54.737Z,16.73
2023-02-21T09:20:26.281Z,18.60
2023-02-21T09:22:53.231Z,24.10
2023-02-21T09:25:25.253Z,23.08
2023-02-21T09:27:54.445Z,22.90
2023-02-21T09:30:26.893Z,24.48
2023-02-21T09:32:55.047Z,20.30
2023-02-21T09:35:22.676Z,23.17
2023-02-21T09:37:49.566Z,21.48
2023-02-21T09:40:40.816Z,23.92
2023-02-21T09:43:35.349Z,22.58
2023-02-21T09:46:19.597Z,17.45
2023-02-21T09:48:46.598Z,23.48
2023-02-21T09:51:14.384Z,21.40
2023-02-21T09:53:43.993Z,21.48
2023-02-21T09:56:16.359Z,22.20
2023-02-21T09:58:44.538Z,24.83
2023-02-21T10:01:20.257Z,26.00
2023-02-21T10:03:49.513Z,17.77
2023-02-21T10:06:28.634Z,21.85
2023-02-21T10:09:03.652Z,17.17
2023-02-21T10:11:57.243Z,24.85
2023-02-21T10:14:34.449Z,25.48
2023-02-21T10:17:23.154Z,23.15
2023-02-21T10:19:55.405Z,27.38
2023-02-21T10:24:51.302Z,21.73
2023-02-21T10:27:20.760Z,16.88
2023-02-21T10:29:59.684Z,19.65
2023-02-21T10:32:27.194Z,19.33
2023-02-21T10:34:58.763Z,24.15
2023-02-21T10:37:39.171Z,19.50
2023-02-21T10:40:18.956Z,27.15
2023-02-21T10:42:54.577Z,20.02
2023-02-21T10:45:27.810Z,19.02
2023-02-21T10:48:04.530Z,20.67
2023-02-21T10:50:54.612Z,26.10
2023-02-21T10:53:50.027Z,19.50
2023-02-21T10:56:19.719Z,25.35
2023-02-21T10:58:46.688Z,24.55
2023-02-21T11:01:16.493Z,25.98
2023-02-21T11:03:51.673Z,25.13
2023-02-21T11:06:31.518Z,26.13
2023-02-21T11:08:59.180Z,26.05
2023-02-21T11:11:37.281Z,24.95
2023-02-21T11:14:23.398Z,19.15
2023-02-21T11:17:14.539Z,21.77
2023-02-21T11:19:47.596Z,22.13
2023-02-21T11:22:15.981Z,23.45
2023-02-21T11:24:59.270Z,24.55
2023-02-21T11:27:27.751Z,27.13
2023-02-21T11:29:55.295Z,24.65
2023-02-21T11:32:40.568Z,26.75
2023-02-21T11:35:19.430Z,33.20
2023-02-21T11:37:50.606Z,23.73
2023-02-21T11:40:42.271Z,21.85
2023-02-21T11:43:29.988Z,23.50
2023-02-21T11:46:02.881Z,25.50
2023-02-21T11:48:33.837Z,26.40
2023-02-21T11:51:09.622Z,23.20
2023-02-21T11:53:43.771Z,29.25
2023-02-21T11:56:41.763Z,23.30
2023-02-21T11:59:26.765Z,22.85
2023-02-21T12:02:22.001Z,24.90
2023-02-21T12:05:07.353Z,18.83
2023-02-21T12:07:52.719Z,29.75
2023-02-21T12:10:38.189Z,25.88
2023-02-21T12:13:26.704Z,23.75
2023-02-21T12:16:22.289Z,21.27
2023-02-21T12:19:16.864Z,25.90
2023-02-21T12:22:17.585Z,23.08
2023-02-21T12:24:44.458Z,24.30
2023-02-21T12:27:25.498Z,22.67
2023-02-21T12:29:53.856Z,28.77
2023-02-21T12:32:40.953Z,26.77
2023-02-21T12:35:27.703Z,24.00
2023-02-21T12:38:13.542Z,22.60
2023-02-21T12:40:54.743Z,19.85
2023-02-21T12:43:36.658Z,20.92
2023-02-21T12:46:13.330Z,23.17
2023-02-21T12:48:58.523Z,27.02
2023-02-21T12:51:34.364Z,24.02
2023-02-21T12:54:27.234Z,25.63
2023-02-21T12:57:00.190Z,24.08
2023-02-21T12:59:50.496Z,27.20
2023-02-21T13:02:55.161Z,21.30
2023-02-21T13:05:44.486Z,26.85
2023-02-21T13:08:24.955Z,19.75
2023-02-21T13:11:19.132Z,27.17
2023-02-21T13:13:47.284Z,26.95
2023-02-21T13:16:15.105Z,24.00
2023-02-21T13:18:51.038Z,24.00
2023-02-21T13:21:27.860Z,15.35
2023-02-21T13:24:13.620Z,25.25
2023-02-21T13:26:57.857Z,25.92
2023-02-21T13:29:38.698Z,24.48
2023-02-21T13:32:09.241Z,27.15
2023-02-21T13:34:45.257Z,27.58
2023-02-21T13:37:21.587Z,24.73
2023-02-21T13:40:16.980Z,20.58
2023-02-21T13:42:44.277Z,22.90
2023-02-21T13:45:24.731Z,18.33
2023-02-21T13:47:57.767Z,20.30
2023-02-21T13:50:40.769Z,18.45
2023-02-21T13:53:34.111Z,24.00
2023-02-21T13:56:07.053Z,24.58
2023-02-21T13:58:37.837Z,21.33
2023-02-21T14:01:22.613Z,21.85
2023-02-21T14:03:53.727Z,28.58
2023-02-21T14:06:35.587Z,20.50
2023-02-21T14:09:29.005Z,22.20
2023-02-21T14:11:56.159Z,25.25
2023-02-21T14:14:32.176Z,22.08
2023-02-21T14:17:04.523Z,16.95
2023-02-21T14:19:59.665Z,20.42
2023-02-21T14:22:30.865Z,22.75
2023-02-21T14:25:06.348Z,25.50
2023-02-21T14:27:36.532Z,21.90
2023-02-21T14:30:29.029Z,18.35
2023-02-21T14:33:21.590Z,23.90
2023-02-21T14:38:39.289Z,29.75
2023-02-21T14:41:48.039Z,21.02
2023-02-21T14:44:21.272Z,24.65
2023-02-21T14:47:00.646Z,19.67
2023-02-21T14:49:55.975Z,26.05
2023-02-21T14:52:47.906Z,20.83
2023-02-21T14:55:33.479Z,24.50
2023-02-21T14:58:35.814Z,21.92
2023-02-21T15:01:08.081Z,20.08
2023-02-21T15:06:25.156Z,20.55
2023-02-21T15:08:52.746Z,16.13
2023-02-21T15:11:33.514Z,18.85
2023-02-21T15:14:25.213Z,18.88
2023-02-21T15:16:55.731Z,18.13
2023-02-21T15:19:25.444Z,19.50
2023-02-21T15:22:25.042Z,26.27
2023-02-21T15:25:00.391Z,22.85
2023-02-21T15:27:27.272Z,28.13
2023-02-21T15:30:13.064Z,24.67
2023-02-21T15:32:40.050Z,24.80
2023-02-21T15:35:12.751Z,16.90
2023-02-21T15:37:40.975Z,24.35
2023-02-21T15:40:20.148Z,19.25
2023-02-21T15:42:48.319Z,20.00
2023-02-21T15:45:29.863Z,20.20
2023-02-21T15:47:58.659Z,22.00
2023-02-21T15:50:28.635Z,26.25
2023-02-21T15:52:55.601Z,23.95
2023-02-21T15:55:25.857Z,19.33
2023-02-21T15:58:07.920Z,26.02
2023-02-21T16:00:49.190Z,23.25
2023-02-21T16:03:42.996Z,19.90
2023-02-21T16:06:16.200Z,27.65
2023-02-21T16:09:02.114Z,23.88
2023-02-21T16:11:38.119Z,25.20
2023-02-21T16:14:05.055Z,20.65
2023-02-21T16:16:35.617Z,22.83
2023-02-21T16:19:02.538Z,24.55
2023-02-21T16:21:30.203Z,25.67
2023-02-21T16:23:57.230Z,21.30
2023-02-21T16:26:28.714Z,27.30
2023-02-21T16:28:59.965Z,18.65
2023-02-21T16:31:32.218Z,27.15
2023-02-21T16:36:28.537Z,18.88
2023-02-21T16:38:56.629Z,23.05
2023-02-21T16:41:23.912Z,23.05
2023-02-21T16:43:50.967Z,23.50
2023-02-21T16:46:27.022Z,18.95
2023-02-21T16:48:55.599Z,29.77
2023-02-21T16:51:22.919Z,25.50
2023-02-21T16:53:49.850Z,22.42
2023-02-21T16:56:17.085Z,20.65
2023-02-21T16:58:48.158Z,25.08
2023-02-21T17:01:22.671Z,22.92
2023-02-21T17:03:53.811Z,27.17
2023-02-21T17:06:23.129Z,19.30
2023-02-21T17:08:50.504Z,19.33
2023-02-21T17:11:17.650Z,25.80
2023-02-21T17:13:44.792Z,24.58
2023-02-21T17:16:11.867Z,22.58
2023-02-21T17:18:38.929Z,30.25
2023-02-21T17:21:10.500Z,27.80
2023-02-21T17:23:39.552Z,24.33
2023-02-21T17:26:06.475Z,26.92
2023-02-21T17:28:34.614Z,31.45
2023-02-21T17:31:01.514Z,33.33
2023-02-21T17:33:28.443Z,26.25
2023-02-21T17:35:55.544Z,33.58
2023-02-21T17:38:22.678Z,32.33
2023-02-21T17:40:54.266Z,27.80
2023-02-21T17:43:21.159Z,32.08
2023-02-21T17:45:48.194Z,28.38
2023-02-21T17:48:15.223Z,33.42
2023-02-21T17:50:42.187Z,22.83
2023-02-21T17:53:09.171Z,21.70
2023-02-21T17:55:36.166Z,26.38
2023-02-21T17:58:06.367Z,24.38
2023-02-21T18:00:35.695Z,28.80
2023-02-21T18:03:04.433Z,27.70
2023-02-21T18:05:32.563Z,29.75
2023-02-21T18:07:59.699Z,29.38
2023-02-21T18:10:27.172Z,25.38
2023-02-21T18:13:00.650Z,31.98
2023-02-21T18:15:28.941Z,24.85
2023-02-21T18:17:56.679Z,33.13
2023-02-21T18:20:24.922Z,28.58
2023-02-21T18:22:51.938Z,32.47
2023-02-21T18:25:21.308Z,31.55
2023-02-21T18:27:48.337Z,24.10
2023-02-21T18:30:16.357Z,24.27
2023-02-21T18:32:43.329Z,20.77
2023-02-21T18:35:10.473Z,19.67
2023-02-21T18:37:37.674Z,23.58
2023-02-21T18:40:08.391Z,24.65
2023-02-21T18:42:35.373Z,22.20
2023-02-21T18:45:02.283Z,21.58
2023-02-21T18:47:31.153Z,22.63
2023-02-21T18:50:01.243Z,22.98
2023-02-21T18:52:29.708Z,21.27
2023-02-21T18:55:03.289Z,17.33
2023-02-21T18:57:31.380Z,28.73
2023-02-21T18:59:59.506Z,29.08
2023-02-21T19:02:26.890Z,22.10
2023-02-21T19:04:53.813Z,22.73
2023-02-21T19:07:20.731Z,23.63
2023-02-21T19:09:50.390Z,24.55
2023-02-21T19:12:17.993Z,21.60
2023-02-21T19:14:44.994Z,29.00
2023-02-21T19:17:12.029Z,24.98
2023-02-21T19:19:42.778Z,29.27
2023-02-21T19:22:09.731Z,31.55
2023-02-21T19:24:36.674Z,22.98
2023-02-21T19:27:03.852Z,27.33
2023-02-21T19:29:32.846Z,22.70
2023-02-21T19:31:59.878Z,24.00
2023-02-21T19:34:26.805Z,20.67
2023-02-21T19:36:53.858Z,25.20
2023-02-21T19:39:20.964Z,22.80
2023-02-21T19:41:48.168Z,25.92
2023-02-21T19:44:15.292Z,22.13
2023-02-21T19:46:45.777Z,23.33
2023-02-21T19:49:18.351Z,24.55
2023-02-21T19:51:46.913Z,28.55
2023-02-21T19:54:14.815Z,26.33
2023-02-21T19:56:41.878Z,30.60
2023-02-21T19:59:12.268Z,30.45
2023-02-21T20:01:39.776Z,29.00
2023-02-21T20:04:06.785Z,28.40
2023-02-21T20:06:35.472Z,27.33
2023-02-21T20:09:07.133Z,25.88
2023-02-21T20:11:34.130Z,26.25
2023-02-21T20:14:01.076Z,30.98
2023-02-21T20:16:29.516Z,40.72
2023-02-21T20:18:57.526Z,29.92
2023-02-21T20:21:29.323Z,28.55
2023-02-21T20:23:57.952Z,29.83
2023-02-21T20:26:25.105Z,25.35
2023-02-21T20:28:53.105Z,28.52
2023-02-21T20:31:21.342Z,27.83
2023-02-21T20:33:48.573Z,33.85
2023-02-21T20:36:16.419Z,27.52
2023-02-21T20:38:43.992Z,26.92
2023-02-21T20:41:13.871Z,34.90
2023-02-21T20:43:41.648Z,23.50
2023-02-21T20:46:11.520Z,27.65
2023-02-21T20:48:38.970Z,29.83
2023-02-21T20:51:08.755Z,35.17
2023-02-21T20:53:36.791Z,26.15
2023-02-21T20:56:05.199Z,30.98
2023-02-21T20:58:32.316Z,22.98
2023-02-21T21:00:59.202Z,27.33
2023-02-21T21:03:29.543Z,29.02
2023-02-21T21:05:56.500Z,30.30
2023-02-21T21:08:23.658Z,25.00
2023-02-21T21:10:51.006Z,26.63
2023-02-21T21:13:17.998Z,24.33
2023-02-21T21:15:45.042Z,21.98
2023-02-21T21:18:12.368Z,26.42
2023-02-21T21:20:39.405Z,27.17
2023-02-21T21:23:07.173Z,29.67
2023-02-21T21:25:34.786Z,32.10
2023-02-21T21:28:02.505Z,34.50
2023-02-21T21:30:30.696Z,27.55
2023-02-21T21:32:57.942Z,30.58
2023-02-21T21:35:30.038Z,30.77
2023-02-21T21:38:00.360Z,33.78
2023-02-21T21:40:29.498Z,20.63
2023-02-21T21:42:56.756Z,27.33
2023-02-21T21:45:27.581Z,27.23
2023-02-21T21:47:58.736Z,27.88
2023-02-21T21:50:25.846Z,31.10
2023-02-21T21:52:57.503Z,32.63
2023-02-21T21:55:29.619Z,42.10
2023-02-21T21:57:58.883Z,35.75
2023-02-21T22:00:28.318Z,32.75
2023-02-21T22:03:00.100Z,34.47
2023-02-21T22:05:30.440Z,36.70
2023-02-21T22:07:58.351Z,35.75
2023-02-21T22:10:26.394Z,33.85
2023-02-21T22:12:56.083Z,35.00
2023-02-21T22:15:25.065Z,36.85
2023-02-21T22:17:52.092Z,31.38
2023-02-21T22:20:28.364Z,36.72
2023-02-21T22:22:59.434Z,39.83
2023-02-21T22:25:30.733Z,39.30
2023-02-21T22:27:58.392Z,37.72
2023-02-21T22:30:27.694Z,36.28
2023-02-21T22:32:54.624Z,42.83
2023-02-21T22:35:21.539Z,42.42
2023-02-21T22:37:54.215Z,47.30
2023-02-21T22:40:26.409Z,43.97
2023-02-21T22:45:23.058Z,43.47
2023-02-21T22:47:51.059Z,48.83
2023-02-21T22:50:20.420Z,43.70
2023-02-21T22:52:59.580Z,41.28
2023-02-21T22:55:27.731Z,45.22
2023-02-21T22:57:59.264Z,45.65
2023-02-21T23:00:35.525Z,42.53
2023-02-21T23:03:16.591Z,42.05
2023-02-21T23:05:49.608Z,28.60
2023-02-21T23:08:21.874Z,31.60
2023-02-21T23:13:23.281Z,32.67
2023-02-21T23:15:51.258Z,28.73
2023-02-21T23:18:23.296Z,30.10
2023-02-21T23:20:53.178Z,27.70
2023-02-21T23:23:28.436Z,28.42
2023-02-21T23:25:59.060Z,32.63
2023-02-21T23:28:28.900Z,24.00
2023-02-21T23:30:58.108Z,29.02
2023-02-21T23:33:27.463Z,31.80
2023-02-21T23:35:56.124Z,32.53
2023-02-21T23:38:24.591Z,28.38
2023-02-21T23:41:02.136Z,28.63
2023-02-21T23:43:30.932Z,29.25
2023-02-21T23:45:59.154Z,26.75
2023-02-21T23:48:26.861Z,27.88
2023-02-21T23:50:58.152Z,29.75
2023-02-21T23:53:31.905Z,28.60
2023-02-21T23:56:00.743Z,25.90
2023-02-21T23:58:33.122Z,24.20
